createdAt,value
2018-01-13T00:01:14.169Z,4.40
2018-01-13T00:03:40.103Z,4.40
2018-01-13T00:06:06.073Z,4.40
2018-01-13T00:08:32.077Z,4.40
2018-01-13T00:10:58.011Z,4.40
2018-01-13T00:13:23.990Z,4.40
2018-01-13T00:15:49.964Z,4.30
2018-01-13T00:18:16.706Z,4.40
2018-01-13T00:20:43.451Z,4.50
2018-01-13T00:23:09.383Z,4.40
2018-01-13T00:25:35.375Z,4.50
2018-01-13T00:28:01.312Z,4.40
2018-01-13T00:30:27.284Z,4.30
2018-01-13T00:32:53.246Z,4.40
2018-01-13T00:35:19.956Z,4.40
2018-01-13T00:37:45.923Z,4.40
2018-01-13T00:40:12.667Z,4.20
2018-01-13T00:42:38.611Z,4.30
2018-01-13T00:45:04.535Z,4.20
2018-01-13T00:47:30.521Z,4.10
2018-01-13T00:49:56.461Z,4.20
2018-01-13T00:52:22.415Z,4.20
2018-01-13T00:54:48.424Z,4.00
2018-01-13T00:57:14.384Z,4.00
2018-01-13T00:59:40.347Z,4.10
2018-01-13T01:02:06.279Z,4.20
2018-01-13T01:04:32.240Z,4.20
2018-01-13T01:06:58.925Z,4.10
2018-01-13T01:09:24.926Z,4.10
2018-01-13T01:11:51.635Z,4.20
2018-01-13T01:14:17.606Z,4.20
2018-01-13T01:16:43.600Z,4.20
2018-01-13T01:19:09.576Z,4.20
2018-01-13T01:21:35.747Z,4.10
2018-01-13T01:24:01.711Z,3.90
2018-01-13T01:26:27.639Z,4.00
2018-01-13T01:28:53.624Z,4.10
2018-01-13T01:31:19.640Z,4.20
2018-01-13T01:33:45.579Z,4.20
2018-01-13T01:36:11.577Z,4.10
2018-01-13T01:38:37.516Z,4.10
2018-01-13T01:41:03.487Z,4.00
2018-01-13T01:43:29.448Z,4.00
2018-01-13T01:45:56.199Z,3.80
2018-01-13T01:48:24.763Z,3.90
2018-01-13T01:50:50.723Z,3.90
2018-01-13T01:53:17.451Z,3.90
2018-01-13T01:55:43.419Z,3.90
2018-01-13T01:58:10.091Z,4.00
2018-01-13T02:00:36.047Z,4.00
2018-01-13T02:03:02.031Z,3.90
2018-01-13T02:05:28.713Z,3.90
2018-01-13T02:07:54.689Z,4.00
2018-01-13T02:10:20.626Z,4.00
2018-01-13T02:12:46.603Z,3.90
2018-01-13T02:15:13.297Z,4.00
2018-01-13T02:17:39.289Z,4.00
2018-01-13T02:20:06.019Z,3.90
2018-01-13T02:22:31.960Z,3.90
2018-01-13T02:24:57.940Z,3.90
2018-01-13T02:27:23.869Z,4.00
2018-01-13T02:29:49.855Z,3.90
2018-01-13T02:32:15.837Z,3.90
2018-01-13T02:34:41.784Z,4.10
2018-01-13T02:37:07.752Z,4.10
2018-01-13T02:39:33.744Z,3.90
2018-01-13T02:41:59.732Z,3.90
2018-01-13T02:44:25.686Z,3.80
2018-01-13T02:46:51.629Z,3.80
2018-01-13T02:49:18.331Z,3.60
2018-01-13T02:51:44.264Z,3.60
2018-01-13T02:54:10.247Z,3.70
2018-01-13T02:56:36.232Z,3.70
2018-01-13T02:59:02.209Z,3.80
2018-01-13T03:01:28.143Z,3.80
2018-01-13T03:03:54.075Z,3.90
2018-01-13T03:06:20.048Z,4.00
2018-01-13T03:08:45.983Z,3.90
2018-01-13T03:11:11.944Z,3.90
2018-01-13T03:13:37.925Z,3.80
2018-01-13T03:16:03.972Z,3.80
2018-01-13T03:18:30.707Z,3.80
2018-01-13T03:20:56.679Z,3.80
2018-01-13T03:23:22.608Z,3.70
2018-01-13T03:25:49.349Z,3.70
2018-01-13T03:28:16.069Z,3.80
2018-01-13T03:30:42.000Z,3.70
2018-01-13T03:33:08.008Z,3.70
2018-01-13T03:35:34.005Z,3.70
2018-01-13T03:38:00.701Z,3.70
2018-01-13T03:40:26.683Z,3.70
2018-01-13T03:42:52.648Z,3.60
2018-01-13T03:45:19.320Z,3.60
2018-01-13T03:47:45.279Z,3.60
2018-01-13T03:50:11.248Z,3.60
2018-01-13T03:52:37.927Z,3.60
2018-01-13T03:55:03.895Z,3.60
2018-01-13T03:57:29.839Z,3.60
2018-01-13T03:59:55.775Z,3.60
2018-01-13T04:02:21.740Z,3.60
2018-01-13T04:04:48.448Z,3.50
2018-01-13T04:07:14.483Z,3.50
2018-01-13T04:09:40.427Z,3.60
2018-01-13T04:12:06.359Z,3.60
2018-01-13T04:14:32.328Z,3.60
2018-01-13T04:16:58.311Z,3.70
2018-01-13T04:19:24.275Z,3.70
2018-01-13T04:21:50.220Z,3.50
2018-01-13T04:24:16.259Z,3.60
2018-01-13T04:26:42.235Z,3.50
2018-01-13T04:29:08.180Z,3.50
2018-01-13T04:31:34.156Z,3.40
2018-01-13T04:34:00.101Z,3.40
2018-01-13T04:36:26.049Z,3.40
2018-01-13T04:38:52.765Z,3.50
2018-01-13T04:41:18.771Z,3.50
2018-01-13T04:43:44.799Z,3.60
2018-01-13T04:46:10.736Z,3.50
2018-01-13T04:48:36.749Z,3.40
2018-01-13T04:51:02.684Z,3.20
2018-01-13T04:53:28.613Z,3.20
2018-01-13T04:55:54.580Z,3.30
2018-01-13T04:58:20.570Z,3.30
2018-01-13T05:00:46.624Z,3.30
2018-01-13T05:03:12.579Z,3.30
2018-01-13T05:05:39.251Z,3.30
2018-01-13T05:08:05.226Z,3.30
2018-01-13T05:10:31.168Z,3.40
2018-01-13T05:12:57.108Z,3.30
2018-01-13T05:15:23.079Z,3.30
2018-01-13T05:17:49.133Z,3.20
2018-01-13T05:20:15.163Z,3.20
2018-01-13T05:22:41.103Z,3.30
2018-01-13T05:25:07.052Z,3.30
2018-01-13T05:27:33.024Z,3.20
2018-01-13T05:29:58.959Z,3.20
2018-01-13T05:32:24.939Z,3.20
2018-01-13T05:34:50.897Z,3.10
2018-01-13T05:37:16.910Z,3.20
2018-01-13T05:39:42.897Z,3.10
2018-01-13T05:42:08.828Z,3.10
2018-01-13T05:44:34.812Z,3.10
2018-01-13T05:47:00.743Z,3.10
2018-01-13T05:49:26.716Z,3.10
2018-01-13T05:51:52.651Z,3.10
2018-01-13T05:54:18.666Z,3.10
2018-01-13T05:56:44.639Z,3.20
2018-01-13T05:59:10.563Z,3.10
2018-01-13T06:01:36.540Z,3.20
2018-01-13T06:04:03.492Z,3.10
2018-01-13T06:06:30.228Z,3.00
2018-01-13T06:08:56.191Z,3.00
2018-01-13T06:11:22.886Z,3.00
2018-01-13T06:13:48.871Z,3.00
2018-01-13T06:16:14.900Z,2.90
2018-01-13T06:18:41.655Z,2.70
2018-01-13T06:21:07.593Z,2.70
2018-01-13T06:23:33.560Z,2.80
2018-01-13T06:25:59.501Z,2.70
2018-01-13T06:28:25.468Z,2.80
2018-01-13T06:30:51.412Z,2.80
2018-01-13T06:33:17.385Z,2.70
2018-01-13T06:35:44.127Z,2.80
2018-01-13T06:38:10.846Z,2.80
2018-01-13T06:40:36.820Z,2.70
2018-01-13T06:43:03.552Z,2.80
2018-01-13T06:45:29.488Z,2.80
2018-01-13T06:47:55.428Z,2.70
2018-01-13T06:50:21.450Z,2.70
2018-01-13T06:52:47.900Z,2.80
2018-01-13T06:55:13.885Z,2.80
2018-01-13T06:57:39.827Z,2.80
2018-01-13T07:00:05.821Z,2.80
2018-01-13T07:02:31.801Z,3.00
2018-01-13T07:04:57.730Z,3.00
2018-01-13T07:07:23.658Z,2.90
2018-01-13T07:09:49.619Z,2.90
2018-01-13T07:12:15.595Z,2.90
2018-01-13T07:14:41.563Z,2.80
2018-01-13T07:17:07.535Z,2.80
2018-01-13T07:19:33.504Z,2.80
2018-01-13T07:21:59.495Z,2.70
2018-01-13T07:24:25.440Z,2.70
2018-01-13T07:26:51.400Z,2.70
2018-01-13T07:29:17.393Z,2.80
2018-01-13T07:31:43.382Z,2.90
2018-01-13T07:34:09.355Z,2.70
2018-01-13T07:36:35.293Z,2.70
2018-01-13T07:39:01.245Z,2.70
2018-01-13T07:41:27.221Z,2.80
2018-01-13T07:43:53.159Z,2.60
2018-01-13T07:46:20.627Z,2.70
2018-01-13T07:48:46.610Z,2.70
2018-01-13T07:51:12.627Z,2.60
2018-01-13T07:53:38.599Z,2.70
2018-01-13T07:56:04.565Z,2.60
2018-01-13T07:58:30.548Z,2.60
2018-01-13T08:00:56.483Z,2.70
2018-01-13T08:03:22.447Z,2.70
2018-01-13T08:05:48.443Z,2.60
2018-01-13T08:08:14.409Z,2.60
2018-01-13T08:10:40.392Z,2.50
2018-01-13T08:13:07.080Z,2.50
2018-01-13T08:15:33.047Z,2.50
2018-01-13T08:17:59.020Z,2.60
2018-01-13T08:20:25.700Z,2.50
2018-01-13T08:22:51.663Z,2.50
2018-01-13T08:25:17.686Z,2.50
2018-01-13T08:27:43.625Z,2.50
2018-01-13T08:30:09.602Z,2.50
2018-01-13T08:32:35.548Z,2.50
2018-01-13T08:35:02.260Z,2.50
2018-01-13T08:37:28.240Z,2.40
2018-01-13T08:39:54.921Z,2.70
2018-01-13T08:42:20.860Z,2.70
2018-01-13T08:44:46.899Z,2.70
2018-01-13T08:47:12.836Z,2.70
2018-01-13T08:49:38.801Z,2.70
2018-01-13T08:52:04.771Z,2.60
2018-01-13T08:54:31.647Z,2.80
2018-01-13T08:56:57.580Z,2.80
2018-01-13T08:59:23.519Z,2.60
2018-01-13T09:04:45.047Z,2.70
2018-01-13T09:07:11.035Z,2.60
2018-01-13T09:09:36.968Z,2.70
2018-01-13T09:12:02.899Z,2.70
2018-01-13T09:14:28.874Z,2.60
2018-01-13T09:16:54.825Z,2.60
2018-01-13T09:19:20.819Z,2.60
2018-01-13T09:21:46.783Z,2.60
2018-01-13T09:24:12.753Z,2.70
2018-01-13T09:26:39.478Z,2.70
2018-01-13T09:29:05.422Z,2.70
2018-01-13T09:31:31.360Z,2.70
2018-01-13T09:33:57.344Z,2.70
2018-01-13T09:36:23.327Z,2.80
2018-01-13T09:38:49.331Z,2.90
2018-01-13T09:41:15.305Z,2.90
2018-01-13T09:43:41.256Z,2.80
2018-01-13T09:46:07.940Z,2.80
2018-01-13T09:48:33.933Z,2.70
2018-01-13T09:50:59.869Z,2.80
2018-01-13T09:53:26.579Z,2.80
2018-01-13T09:55:52.559Z,2.70
2018-01-13T09:58:19.354Z,2.90
2018-01-13T10:00:45.319Z,2.90
2018-01-13T10:03:11.256Z,2.90
2018-01-13T10:05:37.228Z,2.60
2018-01-13T10:08:03.964Z,2.70
2018-01-13T10:10:30.726Z,2.70
2018-01-13T10:12:57.416Z,2.60
2018-01-13T10:15:23.384Z,2.60
2018-01-13T10:17:49.328Z,2.50
2018-01-13T10:20:15.339Z,2.60
2018-01-13T10:22:41.275Z,2.60
2018-01-13T10:25:07.255Z,2.70
2018-01-13T10:27:33.965Z,2.70
2018-01-13T10:29:59.966Z,2.70
2018-01-13T10:32:25.972Z,2.60
2018-01-13T10:34:52.699Z,2.60
2018-01-13T10:37:18.681Z,2.60
2018-01-13T10:39:44.636Z,2.60
2018-01-13T10:42:10.607Z,2.80
2018-01-13T10:44:36.556Z,2.70
2018-01-13T10:47:02.536Z,2.70
2018-01-13T10:49:28.516Z,2.60
2018-01-13T10:51:54.463Z,2.60
2018-01-13T10:54:20.437Z,2.70
2018-01-13T10:56:46.415Z,2.60
2018-01-13T10:59:12.343Z,2.60
2018-01-13T11:01:38.328Z,2.70
2018-01-13T11:04:05.061Z,2.60
2018-01-13T11:06:31.069Z,2.60
2018-01-13T11:08:57.053Z,2.60
2018-01-13T11:11:23.792Z,2.70
2018-01-13T11:13:50.556Z,2.80
2018-01-13T11:16:17.243Z,2.80
2018-01-13T11:18:43.212Z,2.80
2018-01-13T11:21:09.184Z,2.90
2018-01-13T11:23:35.952Z,2.60
2018-01-13T11:26:01.967Z,2.60
2018-01-13T11:28:28.664Z,2.70
2018-01-13T11:30:54.636Z,2.70
2018-01-13T11:33:20.580Z,2.70
2018-01-13T11:35:46.609Z,2.80
2018-01-13T11:38:12.557Z,2.70
2018-01-13T11:40:38.574Z,2.60
2018-01-13T11:43:04.551Z,2.70
2018-01-13T11:45:30.569Z,2.70
2018-01-13T11:47:57.292Z,2.80
2018-01-13T11:50:23.227Z,2.80
2018-01-13T11:52:49.205Z,2.70
2018-01-13T11:55:15.932Z,2.70
2018-01-13T11:57:41.876Z,2.70
2018-01-13T12:00:07.844Z,2.80
2018-01-13T12:02:33.801Z,2.70
2018-01-13T12:04:59.850Z,2.70
2018-01-13T12:07:25.796Z,2.70
2018-01-13T12:09:51.783Z,2.70
2018-01-13T12:12:17.729Z,2.70
2018-01-13T12:14:43.667Z,2.90
2018-01-13T12:17:09.787Z,2.80
2018-01-13T12:19:36.463Z,3.00
2018-01-13T12:22:02.483Z,3.00
2018-01-13T12:24:28.464Z,3.00
2018-01-13T12:26:54.404Z,2.70
2018-01-13T12:29:20.403Z,2.50
2018-01-13T12:31:46.352Z,2.60
2018-01-13T12:34:12.324Z,2.60
2018-01-13T12:36:38.268Z,2.70
2018-01-13T12:39:04.242Z,2.70
2018-01-13T12:41:30.691Z,2.80
2018-01-13T12:43:56.627Z,2.90
2018-01-13T12:46:22.597Z,3.00
2018-01-13T12:48:48.560Z,2.90
2018-01-13T12:51:15.272Z,2.80
2018-01-13T12:53:41.245Z,2.80
2018-01-13T12:56:07.947Z,2.80
2018-01-13T12:58:33.959Z,2.80
2018-01-13T13:00:59.989Z,2.80
2018-01-13T13:03:25.923Z,2.80
2018-01-13T13:05:52.630Z,2.80
2018-01-13T13:08:18.578Z,2.80
2018-01-13T13:10:44.551Z,2.80
2018-01-13T13:13:10.497Z,2.80
2018-01-13T13:15:36.436Z,2.80
2018-01-13T13:18:02.453Z,2.80
2018-01-13T13:20:29.177Z,2.70
2018-01-13T13:22:55.127Z,2.70
2018-01-13T13:25:21.848Z,2.70
2018-01-13T13:27:47.792Z,2.60
2018-01-13T13:30:13.731Z,2.70
2018-01-13T13:32:39.709Z,2.70
2018-01-13T13:35:05.665Z,2.80
2018-01-13T13:37:31.689Z,2.70
2018-01-13T13:39:57.690Z,2.60
2018-01-13T13:42:23.632Z,2.60
2018-01-13T13:44:50.371Z,2.60
2018-01-13T13:47:16.331Z,2.60
2018-01-13T13:49:43.008Z,2.50
2018-01-13T13:52:09.017Z,2.50
2018-01-13T13:54:35.750Z,2.50
2018-01-13T13:57:01.933Z,2.50
2018-01-13T13:59:27.879Z,2.60
2018-01-13T14:01:53.819Z,2.70
2018-01-13T14:04:19.802Z,2.60
2018-01-13T14:06:46.492Z,2.60
2018-01-13T14:09:12.494Z,2.60
2018-01-13T14:11:39.172Z,2.50
2018-01-13T14:14:05.160Z,2.60
2018-01-13T14:16:31.209Z,2.60
2018-01-13T14:18:57.181Z,2.60
2018-01-13T14:21:23.184Z,2.60
2018-01-13T14:23:49.156Z,2.60
2018-01-13T14:26:15.097Z,2.60
2018-01-13T14:28:41.045Z,2.50
2018-01-13T14:31:07.015Z,2.50
2018-01-13T14:33:32.968Z,2.60
2018-01-13T14:35:59.779Z,2.70
2018-01-13T14:38:25.688Z,2.70
2018-01-13T14:40:51.624Z,2.50
2018-01-13T14:43:17.587Z,2.50
2018-01-13T14:45:43.523Z,2.40
2018-01-13T14:48:09.473Z,2.50
2018-01-13T14:50:35.472Z,2.50
2018-01-13T14:53:01.492Z,2.60
2018-01-13T14:55:27.468Z,2.60
2018-01-13T14:57:53.412Z,2.70
2018-01-13T15:00:19.358Z,2.70
2018-01-13T15:02:45.324Z,2.70
2018-01-13T15:05:12.010Z,2.50
2018-01-13T15:07:37.972Z,2.50
2018-01-13T15:10:03.917Z,2.40
2018-01-13T15:12:29.953Z,2.40
2018-01-13T15:14:56.686Z,2.30
2018-01-13T15:17:22.668Z,2.30
2018-01-13T15:19:49.460Z,2.30
2018-01-13T15:22:15.486Z,2.30
2018-01-13T15:24:41.432Z,2.30
2018-01-13T15:27:07.419Z,2.40
2018-01-13T15:29:34.151Z,2.40
2018-01-13T15:32:00.129Z,2.40
2018-01-13T15:34:26.108Z,2.50
2018-01-13T15:36:52.125Z,2.40
2018-01-13T15:39:18.068Z,2.40
2018-01-13T15:41:44.019Z,2.50
2018-01-13T15:44:09.998Z,2.60
2018-01-13T15:46:36.866Z,2.60
2018-01-13T15:49:02.828Z,2.60
2018-01-13T15:51:28.775Z,2.60
2018-01-13T15:53:54.822Z,2.50
2018-01-13T15:56:20.812Z,2.40
2018-01-13T15:58:46.781Z,2.30
2018-01-13T16:01:12.790Z,2.40
2018-01-13T16:03:38.778Z,2.30
2018-01-13T16:06:04.759Z,2.40
2018-01-13T16:08:30.712Z,2.30
2018-01-13T16:10:56.676Z,2.40
2018-01-13T16:13:22.628Z,2.40
2018-01-13T16:15:49.351Z,2.40
2018-01-13T16:18:15.334Z,2.40
2018-01-13T16:20:41.277Z,2.40
2018-01-13T16:23:07.318Z,2.30
2018-01-13T16:25:33.309Z,2.30
2018-01-13T16:27:59.325Z,2.40
2018-01-13T16:30:25.264Z,2.40
2018-01-13T16:32:51.256Z,2.50
2018-01-13T16:35:17.232Z,2.40
2018-01-13T16:37:43.168Z,2.50
2018-01-13T16:40:09.182Z,2.30
2018-01-13T16:42:35.150Z,2.30
2018-01-13T16:45:01.116Z,2.50
2018-01-13T16:47:27.834Z,2.40
2018-01-13T16:49:53.771Z,2.40
2018-01-13T16:52:19.723Z,2.40
2018-01-13T16:54:45.700Z,2.40
2018-01-13T16:57:11.723Z,2.30
2018-01-13T16:59:37.695Z,2.50
2018-01-13T17:02:03.674Z,2.40
2018-01-13T17:04:30.398Z,2.30
2018-01-13T17:06:56.493Z,2.40
2018-01-13T17:09:22.455Z,2.40
2018-01-13T17:11:48.443Z,2.50
2018-01-13T17:14:14.433Z,2.50
2018-01-13T17:16:40.375Z,2.50
2018-01-13T17:19:06.343Z,2.50
2018-01-13T17:21:33.115Z,2.30
2018-01-13T17:23:59.837Z,2.30
2018-01-13T17:26:25.861Z,2.30
2018-01-13T17:28:51.879Z,2.30
2018-01-13T17:31:17.885Z,2.30
2018-01-13T17:33:43.819Z,2.30
2018-01-13T17:36:09.827Z,2.30
2018-01-13T17:38:35.759Z,2.20
2018-01-13T17:41:01.693Z,2.30
2018-01-13T17:43:27.706Z,2.20
2018-01-13T17:45:53.706Z,2.20
2018-01-13T17:48:19.672Z,2.20
2018-01-13T17:50:45.642Z,2.30
2018-01-13T17:53:11.571Z,2.30
2018-01-13T17:55:37.528Z,2.30
2018-01-13T17:58:04.212Z,2.30
2018-01-13T18:00:30.180Z,2.30
2018-01-13T18:02:56.202Z,2.20
2018-01-13T18:05:22.265Z,2.30
2018-01-13T18:07:48.211Z,2.30
2018-01-13T18:10:14.974Z,2.20
2018-01-13T18:12:41.655Z,2.10
2018-01-13T18:15:07.594Z,2.10
2018-01-13T18:17:33.555Z,2.10
2018-01-13T18:19:59.545Z,2.10
2018-01-13T18:22:26.315Z,2.00
2018-01-13T18:24:52.347Z,1.90
2018-01-13T18:27:18.288Z,2.00
2018-01-13T18:29:44.339Z,1.90
2018-01-13T18:32:10.328Z,1.90
2018-01-13T18:34:37.036Z,2.00
2018-01-13T18:37:03.022Z,1.90
2018-01-13T18:39:29.758Z,1.90
2018-01-13T18:41:55.771Z,1.90
2018-01-13T18:44:21.794Z,2.00
2018-01-13T18:46:47.773Z,2.10
2018-01-13T18:49:13.740Z,2.10
2018-01-13T18:51:39.910Z,2.10
2018-01-13T18:54:05.885Z,2.10
2018-01-13T18:56:32.563Z,2.00
2018-01-13T18:58:58.585Z,2.10
2018-01-13T19:01:25.315Z,2.10
2018-01-13T19:03:51.330Z,2.00
2018-01-13T19:06:17.314Z,2.10
2018-01-13T19:08:44.093Z,2.00
2018-01-13T19:11:10.109Z,2.00
2018-01-13T19:13:36.871Z,2.00
2018-01-13T19:16:02.881Z,2.00
2018-01-13T19:18:28.918Z,2.00
2018-01-13T19:20:54.916Z,2.00
2018-01-13T19:23:20.924Z,1.90
2018-01-13T19:25:46.901Z,1.90
2018-01-13T19:28:12.926Z,1.80
2018-01-13T19:30:38.901Z,1.90
2018-01-13T19:33:05.579Z,1.80
2018-01-13T19:35:31.548Z,1.80
2018-01-13T19:37:57.562Z,1.90
2018-01-13T19:40:23.625Z,1.80
2018-01-13T19:42:49.651Z,1.80
2018-01-13T19:45:15.660Z,1.90
2018-01-13T19:47:41.627Z,1.90
2018-01-13T19:50:07.643Z,2.00
2018-01-13T19:52:33.673Z,1.90
2018-01-13T19:54:59.671Z,1.80
2018-01-13T19:57:25.721Z,1.80
2018-01-13T19:59:52.529Z,1.90
2018-01-13T20:02:18.505Z,1.80
2018-01-13T20:04:45.220Z,1.80
2018-01-13T20:07:11.198Z,1.80
2018-01-13T20:09:37.949Z,1.80
2018-01-13T20:12:03.884Z,1.80
2018-01-13T20:14:30.655Z,1.70
2018-01-13T20:16:57.433Z,1.70
2018-01-13T20:19:23.514Z,1.70
2018-01-13T20:21:49.512Z,1.70
2018-01-13T20:24:15.530Z,1.70
2018-01-13T20:26:41.506Z,1.80
2018-01-13T20:29:07.537Z,1.80
2018-01-13T20:31:33.476Z,1.80
2018-01-13T20:33:59.471Z,1.80
2018-01-13T20:36:25.548Z,1.80
2018-01-13T20:38:51.575Z,1.90
2018-01-13T20:41:17.565Z,1.70
2018-01-13T20:43:44.295Z,1.80
2018-01-13T20:46:10.319Z,1.80
2018-01-13T20:48:36.358Z,1.80
2018-01-13T20:51:02.365Z,1.80
2018-01-13T20:53:28.367Z,2.00
2018-01-13T20:55:55.108Z,1.80
2018-01-13T20:58:21.089Z,1.80
2018-01-13T21:00:47.151Z,1.90
2018-01-13T21:03:13.154Z,1.90
2018-01-13T21:05:39.147Z,2.00
2018-01-13T21:08:05.153Z,2.00
2018-01-13T21:10:31.130Z,2.00
2018-01-13T21:12:57.889Z,1.90
2018-01-13T21:15:24.713Z,1.90
2018-01-13T21:17:50.713Z,1.90
2018-01-13T21:20:16.732Z,1.90
2018-01-13T21:22:42.754Z,1.90
2018-01-13T21:25:09.436Z,1.60
2018-01-13T21:27:35.468Z,1.60
2018-01-13T21:30:01.464Z,1.60
2018-01-13T21:32:27.468Z,1.60
2018-01-13T21:34:53.521Z,1.40
2018-01-13T21:37:19.498Z,1.30
2018-01-13T21:39:46.267Z,1.40
2018-01-13T21:42:12.246Z,1.40
2018-01-13T21:44:38.226Z,1.40
2018-01-13T21:47:04.191Z,1.30
2018-01-13T21:49:30.176Z,1.30
2018-01-13T21:51:56.202Z,1.20
2018-01-13T21:54:22.907Z,1.00
2018-01-13T21:56:48.936Z,1.00
2018-01-13T21:59:15.003Z,0.90
2018-01-13T22:01:40.990Z,0.90
2018-01-13T22:04:07.784Z,0.70
2018-01-13T22:06:33.790Z,0.70
2018-01-13T22:08:59.825Z,0.60
2018-01-13T22:11:25.820Z,0.50
2018-01-13T22:13:51.948Z,0.50
2018-01-13T22:16:17.939Z,0.50
2018-01-13T22:18:43.932Z,0.30
2018-01-13T22:21:09.936Z,0.30
2018-01-13T22:23:35.914Z,0.30
2018-01-13T22:26:01.930Z,0.30
2018-01-13T22:28:27.923Z,0.20
2018-01-13T22:30:53.915Z,0.30
2018-01-13T22:33:19.935Z,0.30
2018-01-13T22:35:45.880Z,0.10
2018-01-13T22:38:11.863Z,0.10
2018-01-13T22:40:37.882Z,0.10
2018-01-13T22:43:04.677Z,-0.10
2018-01-13T22:45:30.702Z,-0.10
2018-01-13T22:47:56.679Z,0.00
2018-01-13T22:50:22.690Z,0.00
2018-01-13T22:52:48.673Z,0.00
2018-01-13T22:55:14.697Z,-0.10
2018-01-13T22:57:40.687Z,0.00
2018-01-13T23:00:06.696Z,0.00
2018-01-13T23:02:33.487Z,0.00
2018-01-13T23:04:59.434Z,0.00
2018-01-13T23:07:25.426Z,0.00
2018-01-13T23:09:51.438Z,0.10
2018-01-13T23:12:17.405Z,0.10
2018-01-13T23:14:43.398Z,0.20
2018-01-13T23:17:09.378Z,0.30
2018-01-13T23:19:35.376Z,0.30
2018-01-13T23:22:01.385Z,0.30
2018-01-13T23:24:27.485Z,0.40
2018-01-13T23:26:53.445Z,0.40
2018-01-13T23:29:19.423Z,0.40
2018-01-13T23:31:45.437Z,0.50
2018-01-13T23:34:11.473Z,0.60
2018-01-13T23:36:37.415Z,0.60
2018-01-13T23:39:03.371Z,0.50
2018-01-13T23:41:29.438Z,0.60
2018-01-13T23:43:55.474Z,0.70
2018-01-13T23:46:21.563Z,0.80
2018-01-13T23:48:47.511Z,0.70
2018-01-13T23:51:14.187Z,0.80
2018-01-13T23:53:40.947Z,0.90
2018-01-13T23:56:07.615Z,0.90
2018-01-13T23:58:33.627Z,0.90
